createdAt,value
2018-12-18T00:00:12.057Z,79.10
2018-12-18T00:02:39.494Z,79.20
2018-12-18T00:05:12.792Z,79.30
2018-12-18T00:07:40.248Z,79.10
2018-12-18T00:10:07.742Z,79.20
2018-12-18T00:12:35.175Z,79.10
2018-12-18T00:15:02.655Z,79.30
2018-12-18T00:17:30.101Z,79.10
2018-12-18T00:19:57.556Z,79.10
2018-12-18T00:22:24.986Z,78.90
2018-12-18T00:24:52.451Z,78.90
2018-12-18T00:27:19.885Z,79.00
2018-12-18T00:29:47.356Z,79.00
2018-12-18T00:32:14.821Z,78.90
2018-12-18T00:34:42.289Z,79.10
2018-12-18T00:37:09.731Z,79.00
2018-12-18T00:39:37.215Z,79.00
2018-12-18T00:42:04.648Z,78.90
2018-12-18T00:44:32.088Z,78.90
2018-12-18T00:46:59.520Z,78.90
2018-12-18T00:49:26.981Z,78.70
2018-12-18T00:51:54.418Z,78.70
2018-12-18T00:54:22.101Z,78.80
2018-12-18T00:56:49.536Z,78.70
2018-12-18T00:59:16.997Z,78.50
2018-12-18T01:01:46.359Z,78.30
2018-12-18T01:04:13.815Z,78.50
2018-12-18T01:06:41.248Z,78.40
2018-12-18T01:09:08.722Z,78.40
2018-12-18T01:11:36.148Z,78.30
2018-12-18T01:14:03.593Z,78.30
2018-12-18T01:16:31.051Z,78.20
2018-12-18T01:18:58.504Z,78.00
2018-12-18T01:21:25.962Z,78.00
2018-12-18T01:23:53.409Z,77.90
2018-12-18T01:26:20.863Z,78.00
2018-12-18T01:28:48.376Z,78.10
2018-12-18T01:31:15.836Z,78.10
2018-12-18T01:33:43.271Z,78.10
2018-12-18T01:36:10.715Z,77.90
2018-12-18T01:38:38.172Z,77.90
2018-12-18T01:41:05.619Z,77.90
2018-12-18T01:43:33.061Z,77.70
2018-12-18T01:46:00.523Z,77.60
2018-12-18T01:48:27.987Z,77.80
2018-12-18T01:50:55.459Z,77.80
2018-12-18T01:53:22.921Z,77.70
2018-12-18T01:55:50.377Z,77.80
2018-12-18T01:58:17.824Z,77.70
2018-12-18T02:00:45.296Z,77.70
2018-12-18T02:03:12.820Z,77.70
2018-12-18T02:05:40.304Z,77.50
2018-12-18T02:08:07.744Z,77.60
2018-12-18T02:10:37.152Z,77.60
2018-12-18T02:13:04.579Z,77.10
2018-12-18T02:15:32.037Z,77.50
2018-12-18T02:17:59.480Z,77.30
2018-12-18T02:20:26.927Z,77.40
2018-12-18T02:22:54.464Z,77.20
2018-12-18T02:25:21.980Z,77.20
2018-12-18T02:27:49.453Z,77.20
2018-12-18T02:30:16.914Z,77.00
2018-12-18T02:32:44.365Z,76.40
2018-12-18T02:35:11.809Z,76.90
2018-12-18T02:37:39.259Z,76.80
2018-12-18T02:40:07.047Z,76.90
2018-12-18T02:42:34.512Z,76.90
2018-12-18T02:45:01.958Z,76.70
2018-12-18T02:47:29.418Z,76.60
2018-12-18T02:49:56.877Z,76.70
2018-12-18T02:52:24.384Z,76.80
2018-12-18T02:54:51.886Z,76.50
2018-12-18T02:57:19.344Z,76.40
2018-12-18T02:59:46.801Z,76.60
2018-12-18T03:02:14.246Z,77.10
2018-12-18T03:04:41.701Z,76.40
2018-12-18T03:07:09.153Z,76.30
2018-12-18T03:09:36.691Z,76.20
2018-12-18T03:12:04.206Z,76.40
2018-12-18T03:14:31.650Z,76.10
2018-12-18T03:16:59.102Z,76.10
2018-12-18T03:19:26.559Z,76.10
2018-12-18T03:21:54.012Z,76.30
2018-12-18T03:24:21.470Z,76.00
2018-12-18T03:26:48.888Z,75.70
2018-12-18T03:29:16.492Z,75.60
2018-12-18T03:31:45.988Z,75.50
2018-12-18T03:34:13.463Z,75.50
2018-12-18T03:36:40.929Z,75.40
2018-12-18T03:39:08.369Z,75.40
2018-12-18T03:41:35.812Z,75.60
2018-12-18T03:44:03.267Z,75.30
2018-12-18T03:46:30.729Z,75.30
2018-12-18T03:48:58.150Z,75.00
2018-12-18T03:51:25.621Z,75.00
2018-12-18T03:53:53.084Z,74.90
2018-12-18T03:56:20.532Z,74.90
2018-12-18T03:58:47.989Z,74.90
2018-12-18T04:01:15.450Z,74.80
2018-12-18T04:03:42.952Z,74.80
2018-12-18T04:06:10.396Z,74.40
2018-12-18T04:08:37.815Z,74.50
2018-12-18T04:11:05.277Z,74.40
2018-12-18T04:13:32.720Z,74.20
2018-12-18T04:16:00.170Z,74.10
2018-12-18T04:18:27.625Z,74.20
2018-12-18T04:20:55.058Z,74.20
2018-12-18T04:23:22.501Z,74.20
2018-12-18T04:25:51.903Z,74.10
2018-12-18T04:28:19.347Z,74.10
2018-12-18T04:30:46.809Z,73.80
2018-12-18T04:33:14.249Z,73.80
2018-12-18T04:35:41.719Z,73.80
2018-12-18T04:38:09.155Z,73.80
2018-12-18T04:40:36.700Z,73.60
2018-12-18T04:43:04.144Z,73.40
2018-12-18T04:45:31.631Z,73.30
2018-12-18T04:47:59.076Z,73.30
2018-12-18T04:50:26.516Z,73.20
2018-12-18T04:52:53.977Z,73.10
2018-12-18T04:55:21.425Z,73.10
2018-12-18T04:57:48.950Z,73.30
2018-12-18T05:00:16.394Z,73.20
2018-12-18T05:02:43.838Z,73.30
2018-12-18T05:05:11.296Z,73.20
2018-12-18T05:07:38.753Z,72.70
2018-12-18T05:10:06.221Z,72.50
2018-12-18T05:12:33.680Z,72.80
2018-12-18T05:15:01.103Z,73.30
2018-12-18T05:17:28.539Z,72.20
2018-12-18T05:19:55.991Z,72.20
2018-12-18T05:22:23.455Z,72.10
2018-12-18T05:24:51.013Z,72.00
2018-12-18T05:27:18.477Z,72.10
2018-12-18T05:29:46.026Z,71.90
2018-12-18T05:32:13.525Z,72.00
2018-12-18T05:34:40.949Z,72.30
2018-12-18T05:37:08.401Z,72.40
2018-12-18T05:39:35.911Z,72.20
2018-12-18T05:42:03.367Z,72.40
2018-12-18T05:44:30.916Z,72.50
2018-12-18T05:46:58.368Z,72.20
2018-12-18T05:49:25.831Z,72.20
2018-12-18T05:51:53.289Z,73.20
2018-12-18T05:54:20.744Z,72.40
2018-12-18T05:56:48.198Z,72.20
2018-12-18T05:59:15.659Z,72.30
2018-12-18T06:01:43.090Z,72.20
2018-12-18T06:04:10.531Z,72.10
2018-12-18T06:06:38.008Z,72.30
2018-12-18T06:09:05.795Z,72.10
2018-12-18T06:11:33.254Z,72.40
2018-12-18T06:14:00.712Z,72.30
2018-12-18T06:16:28.173Z,72.20
2018-12-18T06:18:55.722Z,71.50
2018-12-18T06:21:23.160Z,71.90
2018-12-18T06:23:50.675Z,71.90
2018-12-18T06:26:18.152Z,72.20
2018-12-18T06:28:45.605Z,72.10
2018-12-18T06:31:13.056Z,71.90
2018-12-18T06:33:40.510Z,72.00
2018-12-18T06:36:07.969Z,72.20
2018-12-18T06:38:35.432Z,72.00
2018-12-18T06:41:02.866Z,71.80
2018-12-18T06:43:30.300Z,71.70
2018-12-18T06:45:57.740Z,71.50
2018-12-18T06:48:25.735Z,71.60
2018-12-18T06:50:53.225Z,71.30
2018-12-18T06:53:20.679Z,71.30
2018-12-18T06:55:48.154Z,71.10
2018-12-18T06:58:15.648Z,71.00
2018-12-18T07:00:43.084Z,71.20
2018-12-18T07:03:10.524Z,71.00
2018-12-18T07:05:37.980Z,71.00
2018-12-18T07:08:05.430Z,70.80
2018-12-18T07:10:32.910Z,70.60
2018-12-18T07:13:00.402Z,70.50
2018-12-18T07:15:27.845Z,70.60
2018-12-18T07:17:55.283Z,70.50
2018-12-18T07:20:22.750Z,70.50
2018-12-18T07:22:50.176Z,70.50
2018-12-18T07:25:17.635Z,70.00
2018-12-18T07:27:45.102Z,70.10
2018-12-18T07:30:12.543Z,70.40
2018-12-18T07:32:40.016Z,70.30
2018-12-18T07:35:07.519Z,70.20
2018-12-18T07:37:34.964Z,70.20
2018-12-18T07:40:02.427Z,70.70
2018-12-18T07:42:29.878Z,70.20
2018-12-18T07:44:57.316Z,70.10
2018-12-18T07:47:24.787Z,69.90
2018-12-18T07:49:52.241Z,69.80
2018-12-18T07:52:19.688Z,70.10
2018-12-18T07:54:47.127Z,70.00
2018-12-18T07:57:14.585Z,69.80
2018-12-18T07:59:42.124Z,69.80
2018-12-18T08:02:09.670Z,69.60
2018-12-18T08:04:37.160Z,69.70
2018-12-18T08:07:04.595Z,70.10
2018-12-18T08:09:32.056Z,70.00
2018-12-18T08:11:59.930Z,69.90
2018-12-18T08:14:27.368Z,70.10
2018-12-18T08:16:54.830Z,69.90
2018-12-18T08:19:22.335Z,69.90
2018-12-18T08:21:49.779Z,70.10
2018-12-18T08:24:17.228Z,69.90
2018-12-18T08:26:44.815Z,70.10
2018-12-18T08:29:12.279Z,69.90
2018-12-18T08:31:39.723Z,70.00
2018-12-18T08:34:07.215Z,70.00
2018-12-18T08:36:34.706Z,69.90
2018-12-18T08:39:02.139Z,69.80
2018-12-18T08:41:29.607Z,69.80
2018-12-18T08:43:57.069Z,69.80
2018-12-18T08:46:24.528Z,70.00
2018-12-18T08:48:51.967Z,69.70
2018-12-18T08:51:19.459Z,70.10
2018-12-18T08:53:46.911Z,70.20
2018-12-18T08:56:14.370Z,70.10
2018-12-18T08:58:41.809Z,70.10
2018-12-18T09:01:09.355Z,70.00
2018-12-18T09:03:36.825Z,70.20
2018-12-18T09:06:04.280Z,69.90
2018-12-18T09:08:31.725Z,70.20
2018-12-18T09:10:59.168Z,70.20
2018-12-18T09:13:26.593Z,69.90
2018-12-18T09:15:55.879Z,69.60
2018-12-18T09:18:23.320Z,69.60
2018-12-18T09:20:50.799Z,69.40
2018-12-18T09:23:18.251Z,69.30
2018-12-18T09:25:45.696Z,69.60
2018-12-18T09:28:13.145Z,69.80
2018-12-18T09:30:42.772Z,69.50
2018-12-18T09:33:10.013Z,69.60
2018-12-18T09:35:37.455Z,68.80
2018-12-18T09:38:10.552Z,68.60
2018-12-18T09:40:43.660Z,67.20
2018-12-18T09:43:16.839Z,66.70
2018-12-18T09:45:44.301Z,65.00
2018-12-18T09:48:11.801Z,63.70
2018-12-18T09:50:39.249Z,62.40
2018-12-18T09:53:06.769Z,60.80
2018-12-18T09:55:34.196Z,59.60
2018-12-18T09:58:03.595Z,58.80
2018-12-18T10:00:31.031Z,58.50
2018-12-18T10:02:58.459Z,57.90
2018-12-18T10:05:25.908Z,56.40
2018-12-18T10:07:53.344Z,56.00
2018-12-18T10:10:20.800Z,56.70
2018-12-18T10:12:54.572Z,56.40
2018-12-18T10:15:23.712Z,55.10
2018-12-18T10:17:51.171Z,54.70
2018-12-18T10:20:18.595Z,53.50
2018-12-18T10:22:49.493Z,52.80
2018-12-18T10:25:17.000Z,52.00
2018-12-18T10:27:44.464Z,51.00
2018-12-18T10:30:11.927Z,50.20
2018-12-18T10:32:39.490Z,50.00
2018-12-18T10:35:06.980Z,48.90
2018-12-18T10:37:34.432Z,47.80
2018-12-18T10:40:01.883Z,47.70
2018-12-18T10:42:29.324Z,47.70
2018-12-18T10:44:56.767Z,48.30
2018-12-18T10:47:24.232Z,49.00
2018-12-18T10:49:51.675Z,49.90
2018-12-18T10:52:19.218Z,49.80
2018-12-18T10:54:46.698Z,49.40
2018-12-18T10:57:14.145Z,49.90
2018-12-18T10:59:41.590Z,49.10
2018-12-18T11:02:09.032Z,48.80
2018-12-18T11:04:36.600Z,48.50
2018-12-18T11:07:05.643Z,47.70
2018-12-18T11:09:33.221Z,47.30
2018-12-18T11:12:00.652Z,47.00
2018-12-18T11:14:28.385Z,46.70
2018-12-18T11:16:55.843Z,46.10
2018-12-18T11:19:23.300Z,44.40
2018-12-18T11:21:50.754Z,43.80
2018-12-18T11:24:18.189Z,44.10
2018-12-18T11:26:45.652Z,44.80
2018-12-18T11:29:13.104Z,45.80
2018-12-18T11:31:40.552Z,46.40
2018-12-18T11:34:07.995Z,46.70
2018-12-18T11:36:35.452Z,47.70
2018-12-18T11:39:04.262Z,48.30
2018-12-18T11:41:31.709Z,48.80
2018-12-18T11:43:59.145Z,49.60
2018-12-18T11:46:26.604Z,50.50
2018-12-18T11:48:54.059Z,51.10
2018-12-18T11:51:21.531Z,51.60
2018-12-18T11:53:48.960Z,51.80
2018-12-18T11:56:16.428Z,52.40
2018-12-18T11:58:43.892Z,52.80
2018-12-18T12:01:11.318Z,53.40
2018-12-18T12:03:38.850Z,53.60
2018-12-18T12:06:06.292Z,53.90
2018-12-18T12:08:33.753Z,54.20
2018-12-18T12:11:01.766Z,54.50
2018-12-18T12:13:29.212Z,54.90
2018-12-18T12:15:56.673Z,55.30
2018-12-18T12:18:24.142Z,55.40
2018-12-18T12:20:53.136Z,55.40
2018-12-18T12:23:20.665Z,55.90
2018-12-18T12:25:48.139Z,56.00
2018-12-18T12:28:15.600Z,56.20
2018-12-18T12:30:43.447Z,56.50
2018-12-18T12:33:11.045Z,56.80
2018-12-18T12:35:38.942Z,57.50
2018-12-18T12:38:06.414Z,57.20
2018-12-18T12:40:33.894Z,57.50
2018-12-18T12:43:01.379Z,57.60
2018-12-18T12:45:29.487Z,57.30
2018-12-18T12:47:58.713Z,57.60
2018-12-18T12:50:26.302Z,57.90
2018-12-18T12:52:53.775Z,57.90
2018-12-18T12:55:21.214Z,58.00
2018-12-18T12:57:48.681Z,58.00
2018-12-18T13:00:16.124Z,57.90
2018-12-18T13:02:43.631Z,58.10
2018-12-18T13:05:11.070Z,58.00
2018-12-18T13:07:38.500Z,58.10
2018-12-18T13:10:05.955Z,58.00
2018-12-18T13:12:33.421Z,58.20
2018-12-18T13:15:00.853Z,58.40
2018-12-18T13:17:28.329Z,58.20
2018-12-18T13:19:55.777Z,58.40
2018-12-18T13:22:23.239Z,58.50
2018-12-18T13:24:50.849Z,58.50
2018-12-18T13:27:18.323Z,58.50
2018-12-18T13:29:46.011Z,58.70
2018-12-18T13:32:13.474Z,58.90
2018-12-18T13:34:40.932Z,58.90
2018-12-18T13:37:08.375Z,58.80
2018-12-18T13:39:35.841Z,58.70
2018-12-18T13:42:03.321Z,58.90
2018-12-18T13:44:30.771Z,58.90
2018-12-18T13:46:58.207Z,58.90
2018-12-18T13:49:25.655Z,58.90
2018-12-18T13:51:53.107Z,58.90
2018-12-18T13:54:20.551Z,59.10
2018-12-18T13:56:47.988Z,59.10
2018-12-18T13:59:15.444Z,59.10
2018-12-18T14:01:42.892Z,59.00
2018-12-18T14:04:10.333Z,59.10
2018-12-18T14:06:37.787Z,59.20
2018-12-18T14:09:06.935Z,59.10
2018-12-18T14:11:34.435Z,59.00
2018-12-18T14:14:01.954Z,59.30
2018-12-18T14:16:29.387Z,59.20
2018-12-18T14:18:56.868Z,59.10
2018-12-18T14:21:24.891Z,59.50
2018-12-18T14:23:52.361Z,59.70
2018-12-18T14:26:19.784Z,59.80
2018-12-18T14:28:47.235Z,59.60
2018-12-18T14:31:14.671Z,59.50
2018-12-18T14:33:42.120Z,60.40
2018-12-18T14:36:09.648Z,59.60
2018-12-18T14:38:37.080Z,59.80
2018-12-18T14:41:04.511Z,60.00
2018-12-18T14:43:31.959Z,59.90
2018-12-18T14:45:59.393Z,60.00
2018-12-18T14:48:26.837Z,60.10
2018-12-18T14:50:54.337Z,60.10
2018-12-18T14:53:21.809Z,60.20
2018-12-18T14:55:49.247Z,60.10
2018-12-18T14:58:16.723Z,60.50
2018-12-18T15:00:44.150Z,60.60
2018-12-18T15:03:11.605Z,60.50
2018-12-18T15:05:39.054Z,60.50
2018-12-18T15:08:06.504Z,61.60
2018-12-18T15:10:34.158Z,61.90
2018-12-18T15:13:01.615Z,62.10
2018-12-18T15:15:29.116Z,61.90
2018-12-18T15:17:56.547Z,62.10
2018-12-18T15:20:23.988Z,62.10
2018-12-18T15:22:51.420Z,62.00
2018-12-18T15:25:18.888Z,63.00
2018-12-18T15:27:46.313Z,62.40
2018-12-18T15:30:13.755Z,62.30
2018-12-18T15:32:41.219Z,62.20
2018-12-18T15:35:08.668Z,62.30
2018-12-18T15:37:36.537Z,62.50
2018-12-18T15:40:04.876Z,62.20
2018-12-18T15:42:32.299Z,62.50
2018-12-18T15:44:59.733Z,62.80
2018-12-18T15:47:27.164Z,62.90
2018-12-18T15:49:54.599Z,62.80
2018-12-18T15:52:22.043Z,62.80
2018-12-18T15:54:49.496Z,62.80
2018-12-18T15:57:16.953Z,63.00
2018-12-18T15:59:44.377Z,63.20
2018-12-18T16:02:11.826Z,63.10
2018-12-18T16:04:39.274Z,63.10
2018-12-18T16:07:06.705Z,63.00
2018-12-18T16:09:34.149Z,62.70
2018-12-18T16:12:01.596Z,62.90
2018-12-18T16:14:29.041Z,63.10
2018-12-18T16:16:56.475Z,63.80
2018-12-18T16:19:23.953Z,63.20
2018-12-18T16:21:51.691Z,63.30
2018-12-18T16:24:19.187Z,63.20
2018-12-18T16:26:46.625Z,63.10
2018-12-18T16:29:14.069Z,63.20
2018-12-18T16:31:41.499Z,63.20
2018-12-18T16:34:08.963Z,63.20
2018-12-18T16:36:36.403Z,63.20
2018-12-18T16:39:06.397Z,63.10
2018-12-18T16:41:33.825Z,64.30
2018-12-18T16:44:01.301Z,63.40
2018-12-18T16:46:28.737Z,63.20
2018-12-18T16:48:56.192Z,63.50
2018-12-18T16:51:23.672Z,63.70
2018-12-18T16:53:51.109Z,63.70
2018-12-18T16:56:18.561Z,64.00
2018-12-18T16:58:46.036Z,63.50
2018-12-18T17:01:13.510Z,63.70
2018-12-18T17:03:40.973Z,64.00
2018-12-18T17:06:08.436Z,63.70
2018-12-18T17:08:35.872Z,63.60
2018-12-18T17:11:03.325Z,64.10
2018-12-18T17:13:30.763Z,64.20
2018-12-18T17:15:58.218Z,64.30
2018-12-18T17:18:25.648Z,64.10
2018-12-18T17:20:53.190Z,64.00
2018-12-18T17:23:20.621Z,63.90
2018-12-18T17:25:48.068Z,64.30
2018-12-18T17:28:15.513Z,64.30
2018-12-18T17:30:42.971Z,64.40
2018-12-18T17:33:10.404Z,64.10
2018-12-18T17:35:38.905Z,64.20
2018-12-18T17:38:06.387Z,64.50
2018-12-18T17:40:34.090Z,64.50
2018-12-18T17:43:01.522Z,64.40
2018-12-18T17:45:28.983Z,64.30
2018-12-18T17:47:56.425Z,64.40
2018-12-18T17:50:23.865Z,64.60
2018-12-18T17:52:51.295Z,64.60
2018-12-18T17:55:18.737Z,64.40
2018-12-18T17:57:46.208Z,64.30
2018-12-18T18:00:13.652Z,64.20
2018-12-18T18:02:41.105Z,64.40
2018-12-18T18:05:08.565Z,64.70
2018-12-18T18:07:36.017Z,64.70
2018-12-18T18:10:04.248Z,64.70
2018-12-18T18:12:31.690Z,64.40
2018-12-18T18:14:59.132Z,64.60
2018-12-18T18:17:26.563Z,65.50
2018-12-18T18:19:54.041Z,64.50
2018-12-18T18:22:21.475Z,64.80
2018-12-18T18:24:48.957Z,64.80
2018-12-18T18:27:16.383Z,64.60
2018-12-18T18:29:43.892Z,64.70
2018-12-18T18:32:11.343Z,64.40
2018-12-18T18:34:38.774Z,65.40
2018-12-18T18:37:06.218Z,64.50
2018-12-18T18:39:33.653Z,64.20
2018-12-18T18:42:01.084Z,64.10
2018-12-18T18:44:28.517Z,64.20
2018-12-18T18:46:55.968Z,63.80
2018-12-18T18:49:23.401Z,64.00
2018-12-18T18:51:50.844Z,64.20
2018-12-18T18:54:18.267Z,64.00
2018-12-18T18:56:45.711Z,63.90
2018-12-18T18:59:13.139Z,64.40
2018-12-18T19:01:40.576Z,64.30
2018-12-18T19:04:08.021Z,64.30
2018-12-18T19:06:35.703Z,64.30
2018-12-18T19:09:03.993Z,64.40
2018-12-18T19:11:31.454Z,64.60
2018-12-18T19:13:58.910Z,64.50
2018-12-18T19:16:26.363Z,64.40
2018-12-18T19:18:53.797Z,64.50
2018-12-18T19:21:21.255Z,64.40
2018-12-18T19:23:48.693Z,64.50
2018-12-18T19:26:16.131Z,64.40
2018-12-18T19:28:50.068Z,64.50
2018-12-18T19:31:13.052Z,64.40
2018-12-18T19:33:40.481Z,64.40
2018-12-18T19:36:07.953Z,64.10
2018-12-18T19:38:35.429Z,64.50
2018-12-18T19:41:02.864Z,64.40
2018-12-18T19:43:30.294Z,64.40
2018-12-18T19:45:57.731Z,64.50
2018-12-18T19:48:25.217Z,64.40
2018-12-18T19:50:52.981Z,64.40
2018-12-18T19:53:20.409Z,64.40
2018-12-18T19:55:47.856Z,64.30
2018-12-18T19:58:15.309Z,63.90
2018-12-18T20:00:42.770Z,63.90
2018-12-18T20:03:10.196Z,63.90
2018-12-18T20:05:38.438Z,64.20
2018-12-18T20:08:10.003Z,64.10
2018-12-18T20:10:35.412Z,64.30
2018-12-18T20:13:04.617Z,64.10
2018-12-18T20:15:32.585Z,64.20
2018-12-18T20:18:00.051Z,63.90
2018-12-18T20:20:27.504Z,63.80
2018-12-18T20:22:54.961Z,63.70
2018-12-18T20:25:22.436Z,64.00
2018-12-18T20:27:49.883Z,63.70
2018-12-18T20:30:17.337Z,63.80
2018-12-18T20:32:44.777Z,63.80
2018-12-18T20:35:12.217Z,63.80
2018-12-18T20:37:39.697Z,64.10
2018-12-18T20:40:08.779Z,64.00
2018-12-18T20:42:36.250Z,63.90
2018-12-18T20:45:04.663Z,64.10
2018-12-18T20:47:32.121Z,63.90
2018-12-18T20:49:59.545Z,63.70
2018-12-18T20:52:26.980Z,63.70
2018-12-18T20:54:54.407Z,63.50
2018-12-18T20:57:21.919Z,63.70
2018-12-18T20:59:49.349Z,63.90
2018-12-18T21:02:16.804Z,63.80
2018-12-18T21:04:44.246Z,63.60
2018-12-18T21:07:11.696Z,63.50
2018-12-18T21:09:39.153Z,63.30
2018-12-18T21:12:06.598Z,63.30
2018-12-18T21:14:34.027Z,63.40
2018-12-18T21:17:01.477Z,63.60
2018-12-18T21:19:28.921Z,63.40
2018-12-18T21:21:56.403Z,63.40
2018-12-18T21:24:23.846Z,63.30
2018-12-18T21:26:51.289Z,63.10
2018-12-18T21:29:18.728Z,63.30
2018-12-18T21:31:46.192Z,63.20
2018-12-18T21:34:13.637Z,62.80
2018-12-18T21:36:41.077Z,62.90
2018-12-18T21:39:08.575Z,62.90
2018-12-18T21:41:36.012Z,63.20
2018-12-18T21:44:03.456Z,63.10
2018-12-18T21:46:30.879Z,62.90
2018-12-18T21:48:58.316Z,62.80
2018-12-18T21:51:25.756Z,62.90
2018-12-18T21:53:53.188Z,62.70
2018-12-18T21:56:20.626Z,63.00
2018-12-18T21:58:48.158Z,63.00
2018-12-18T22:01:15.605Z,63.30
2018-12-18T22:03:43.048Z,63.70
2018-12-18T22:06:10.472Z,63.20
2018-12-18T22:08:38.038Z,63.10
2018-12-18T22:11:05.564Z,62.90
2018-12-18T22:13:33.019Z,63.10
2018-12-18T22:16:00.456Z,63.10
2018-12-18T22:18:27.905Z,62.70
2018-12-18T22:20:55.366Z,62.70
2018-12-18T22:23:22.805Z,62.50
2018-12-18T22:25:50.236Z,62.50
2018-12-18T22:28:17.834Z,62.50
2018-12-18T22:30:45.295Z,62.50
2018-12-18T22:33:12.720Z,62.70
2018-12-18T22:35:40.156Z,62.80
2018-12-18T22:38:07.608Z,62.40
2018-12-18T22:40:35.136Z,62.30
2018-12-18T22:43:02.573Z,62.40
2018-12-18T22:45:30.008Z,61.90
2018-12-18T22:47:57.464Z,62.40
2018-12-18T22:50:24.887Z,62.20
2018-12-18T22:52:52.367Z,62.20
2018-12-18T22:55:19.816Z,62.20
2018-12-18T22:57:47.268Z,62.30
2018-12-18T23:00:17.435Z,62.10
2018-12-18T23:02:44.860Z,61.80
2018-12-18T23:05:12.373Z,61.80
2018-12-18T23:07:40.689Z,61.70
2018-12-18T23:10:08.123Z,62.00
2018-12-18T23:12:35.615Z,62.00
2018-12-18T23:15:03.064Z,62.00
2018-12-18T23:17:30.517Z,61.70
2018-12-18T23:19:58.022Z,61.80
2018-12-18T23:22:25.471Z,61.70
2018-12-18T23:24:52.899Z,61.50
2018-12-18T23:27:20.345Z,61.20
2018-12-18T23:29:47.780Z,60.70
2018-12-18T23:32:15.231Z,61.00
2018-12-18T23:34:42.660Z,61.80
2018-12-18T23:37:10.096Z,60.60
2018-12-18T23:39:37.535Z,60.60
2018-12-18T23:42:05.220Z,60.50
2018-12-18T23:44:32.743Z,60.50
2018-12-18T23:47:00.193Z,60.50
2018-12-18T23:49:27.720Z,60.40
2018-12-18T23:51:55.172Z,60.40
2018-12-18T23:54:22.612Z,60.60
2018-12-18T23:56:50.052Z,60.50
2018-12-18T23:59:17.493Z,60.20
